Cruzeiro Das Ilhas — CSVK — position and weather

sailwx.info

Track history (hours):
 
Tides and Currents Weather Stations Pressure Air Temp Water Temp Dewpoint Dewpoint Depression Visibility Wind Speed Wind Dir Waves Ship Positions

Cruzeiro Das Ilhas

Last reported at 2018-May-22 21:37 UTC. Time now 2018-May-25 01:29 UTC.
Position N 38°32' W 028°37'.

Length 33 m; draft 2.4 m.

Type: Passenger vessel. MMSI: 204701240.

Date/timePositionNaut miles runAvg speedWind from/ knotsBaromVisibWave heightAir tempDewpointWater temp
2018-May-22 21:37N 38°32' W 028°37'0 1.8
2018-May-22 21:30N 38°32' W 028°37'4 8.7
2018-May-22 21:00N 38°32' W 028°32'2 3.5
2018-May-22 20:30N 38°32' W 028°34'3 5.1
2018-May-22 20:00N 38°32' W 028°37'0 0.0
2018-May-22 19:30N 38°32' W 028°37'0 0.0
2018-May-22 19:00N 38°32' W 028°37'0 0.0
2018-May-22 18:30N 38°32' W 028°37'0 0.0
2018-May-22 18:00N 38°32' W 028°37'0 0.0
2018-May-22 17:30N 38°32' W 028°37'0 0.0
2018-May-22 17:00N 38°32' W 028°37'0 0.0
2018-May-22 16:30N 38°32' W 028°37'0 0.0
2018-May-22 16:01N 38°32' W 028°37'0 0.0
2018-May-22 15:30N 38°32' W 028°37'0 0.0
2018-May-22 15:00N 38°32' W 028°37'0 0.0
2018-May-22 14:31N 38°32' W 028°37'0 0.0
2018-May-22 14:00N 38°32' W 028°37'0 0.0
2018-May-22 13:30N 38°32' W 028°37'3 5.7
2018-May-22 13:01N 38°32' W 028°34'0 0.2
2018-May-22 12:30N 38°32' W 028°33'3 0.1
2018-May-20 21:34N 38°32' W 028°37'0 0.1
2018-May-20 21:30N 38°32' W 028°37'4 8.5
2018-May-20 21:00N 38°32' W 028°32'2 3.9
2018-May-20 20:30N 38°32' W 028°34'2 4.8
2018-May-20 20:00N 38°32' W 028°37'0 0.0
2018-May-20 19:30N 38°32' W 028°37'0 0.0
2018-May-20 19:00N 38°32' W 028°37'0 0.0
2018-May-20 18:31N 38°32' W 028°37'0 0.0
2018-May-20 18:00N 38°32' W 028°37'0 0.0
2018-May-20 17:30N 38°32' W 028°37'0 0.0
2018-May-20 17:01N 38°32' W 028°37'0 0.0
2018-May-20 16:30N 38°32' W 028°37'0 0.0
2018-May-20 16:00N 38°32' W 028°37'0 0.0
2018-May-20 15:30N 38°32' W 028°37'4 7.4
2018-May-20 15:00N 38°32' W 028°32'2 3.7
2018-May-20 14:30N 38°32' W 028°35'2 4.2
2018-May-20 14:00N 38°32' W 028°37'0 0.0
2018-May-19 23:58N 38°32' W 028°37'4 8.7
2018-May-19 23:30N 38°32' W 028°32'1 1.7
2018-May-19 23:00N 38°33' W 028°32'611.5
2018-May-19 22:31N 38°36' W 028°26'611.5
2018-May-19 22:00N 38°38' W 028°19'611.7
2018-May-19 21:30N 38°41' W 028°12'1 1.6
2018-May-19 21:01N 38°40' W 028°13'611.1
2018-May-19 20:30N 38°37' W 028°19'611.4
2018-May-19 20:00N 38°35' W 028°26'611.2
2018-May-19 19:31N 38°32' W 028°32'2 3.4
2018-May-19 19:00N 38°32' W 028°34'2 4.8
2018-May-19 18:30N 38°32' W 028°37'0 0.0
2018-May-18 21:34N 38°32' W 028°37'0 0.1
2018-May-18 21:30N 38°32' W 028°37'4 8.3
2018-May-18 21:01N 38°32' W 028°32'2 3.3
2018-May-18 20:30N 38°32' W 028°34'2 5.0
2018-May-18 20:00N 38°32' W 028°37'0 0.0
2018-May-18 19:31N 38°32' W 028°37'0 0.0
2018-May-18 19:00N 38°32' W 028°37'0 0.0
2018-May-18 18:30N 38°32' W 028°37'0 0.0
2018-May-18 18:00N 38°32' W 028°37'0 0.0
2018-May-18 17:30N 38°32' W 028°37'0 0.0
2018-May-18 17:00N 38°32' W 028°37'0 0.0
2018-May-18 16:30N 38°32' W 028°37'0 0.0
2018-May-18 16:00N 38°32' W 028°37'0 0.0
2018-May-18 15:30N 38°32' W 028°37'0 0.0
2018-May-18 15:00N 38°32' W 028°37'0 0.0
2018-May-18 14:30N 38°32' W 028°37'0 0.0
2018-May-18 14:00N 38°32' W 028°37'0 0.0
2018-May-18 13:30N 38°32' W 028°37'0 0.0
2018-May-18 13:01N 38°32' W 028°37'0 0.0
2018-May-18 12:30N 38°32' W 028°37'1 1.1
2018-May-18 12:00N 38°32' W 028°37'4 7.5
2018-May-18 11:31N 38°32' W 028°32'3 5.2
2018-May-18 11:00N 38°32' W 028°35'2 0.1
2018-May-17 12:09N 38°32' W 028°37'0 1.7
2018-May-17 12:00N 38°32' W 028°37'4 8.3
2018-May-17 11:30N 38°32' W 028°32'2 4.6
2018-May-17 11:00N 38°32' W 028°35'2 3.9
2018-May-17 10:30N 38°32' W 028°37'0 0.0
2018-May-16 12:06N 38°32' W 028°37'0 0.3
2018-May-16 12:01N 38°32' W 028°37'4 8.5
2018-May-16 11:30N 38°32' W 028°32'2 3.7
2018-May-16 11:00N 38°32' W 028°34'2 4.9
2018-May-16 10:30N 38°32' W 028°37'0 0.0
2018-May-15 02:32N 38°32' W 028°37'0 0.2
2018-May-15 02:30N 38°32' W 028°37'4 8.5
2018-May-15 02:01N 38°32' W 028°32'4 7.5
2018-May-15 01:30N 38°32' W 028°37'1 0.0
2018-May-14 12:05N 38°32' W 028°37'0 0.5
2018-May-14 12:00N 38°32' W 028°37'4 8.6
2018-May-14 11:30N 38°32' W 028°32'2 3.1
2018-May-14 11:00N 38°32' W 028°34'3 5.4
2018-May-14 10:30N 38°32' W 028°37'  
Track history (hours):
 
Tides and Currents Weather Stations Pressure Air Temp Water Temp Dewpoint Dewpoint Depression Visibility Wind Speed Wind Dir Waves Ship Positions

Cruzeiro Das Ilhas

Last reported at 2018-May-22 21:37 UTC. Time now 2018-May-25 01:29 UTC.
Position N 38°32' W 028°37'.

Length 33 m; draft 2.4 m.

Type: Passenger vessel. MMSI: 204701240.

Date/timePositionNaut miles runAvg speedWind from/ knotsBaromVisibWave heightAir tempDewpointWater temp
2018-May-22 21:37N 38°32' W 028°37'0 1.8
2018-May-22 21:30N 38°32' W 028°37'4 8.7
2018-May-22 21:00N 38°32' W 028°32'2 3.5
2018-May-22 20:30N 38°32' W 028°34'3 5.1
2018-May-22 20:00N 38°32' W 028°37'0 0.0
2018-May-22 19:30N 38°32' W 028°37'0 0.0
2018-May-22 19:00N 38°32' W 028°37'0 0.0
2018-May-22 18:30N 38°32' W 028°37'0 0.0
2018-May-22 18:00N 38°32' W 028°37'0 0.0
2018-May-22 17:30N 38°32' W 028°37'0 0.0
2018-May-22 17:00N 38°32' W 028°37'0 0.0
2018-May-22 16:30N 38°32' W 028°37'0 0.0
2018-May-22 16:01N 38°32' W 028°37'0 0.0
2018-May-22 15:30N 38°32' W 028°37'0 0.0
2018-May-22 15:00N 38°32' W 028°37'0 0.0
2018-May-22 14:31N 38°32' W 028°37'0 0.0
2018-May-22 14:00N 38°32' W 028°37'0 0.0
2018-May-22 13:30N 38°32' W 028°37'3 5.7
2018-May-22 13:01N 38°32' W 028°34'0 0.2
2018-May-22 12:30N 38°32' W 028°33'3 0.1
2018-May-20 21:34N 38°32' W 028°37'0 0.1
2018-May-20 21:30N 38°32' W 028°37'4 8.5
2018-May-20 21:00N 38°32' W 028°32'2 3.9
2018-May-20 20:30N 38°32' W 028°34'2 4.8
2018-May-20 20:00N 38°32' W 028°37'0 0.0
2018-May-20 19:30N 38°32' W 028°37'0 0.0
2018-May-20 19:00N 38°32' W 028°37'0 0.0
2018-May-20 18:31N 38°32' W 028°37'0 0.0
2018-May-20 18:00N 38°32' W 028°37'0 0.0
2018-May-20 17:30N 38°32' W 028°37'0 0.0
2018-May-20 17:01N 38°32' W 028°37'0 0.0
2018-May-20 16:30N 38°32' W 028°37'0 0.0
2018-May-20 16:00N 38°32' W 028°37'0 0.0
2018-May-20 15:30N 38°32' W 028°37'4 7.4
2018-May-20 15:00N 38°32' W 028°32'2 3.7
2018-May-20 14:30N 38°32' W 028°35'2 4.2
2018-May-20 14:00N 38°32' W 028°37'0 0.0
2018-May-19 23:58N 38°32' W 028°37'4 8.7
2018-May-19 23:30N 38°32' W 028°32'1 1.7
2018-May-19 23:00N 38°33' W 028°32'611.5
2018-May-19 22:31N 38°36' W 028°26'611.5
2018-May-19 22:00N 38°38' W 028°19'611.7
2018-May-19 21:30N 38°41' W 028°12'1 1.6
2018-May-19 21:01N 38°40' W 028°13'611.1
2018-May-19 20:30N 38°37' W 028°19'611.4
2018-May-19 20:00N 38°35' W 028°26'611.2
2018-May-19 19:31N 38°32' W 028°32'2 3.4
2018-May-19 19:00N 38°32' W 028°34'2 4.8
2018-May-19 18:30N 38°32' W 028°37'0 0.0
2018-May-18 21:34N 38°32' W 028°37'0 0.1
2018-May-18 21:30N 38°32' W 028°37'4 8.3
2018-May-18 21:01N 38°32' W 028°32'2 3.3
2018-May-18 20:30N 38°32' W 028°34'2 5.0
2018-May-18 20:00N 38°32' W 028°37'0 0.0
2018-May-18 19:31N 38°32' W 028°37'0 0.0
2018-May-18 19:00N 38°32' W 028°37'0 0.0
2018-May-18 18:30N 38°32' W 028°37'0 0.0
2018-May-18 18:00N 38°32' W 028°37'0 0.0
2018-May-18 17:30N 38°32' W 028°37'0 0.0
2018-May-18 17:00N 38°32' W 028°37'0 0.0
2018-May-18 16:30N 38°32' W 028°37'0 0.0
2018-May-18 16:00N 38°32' W 028°37'0 0.0
2018-May-18 15:30N 38°32' W 028°37'0 0.0
2018-May-18 15:00N 38°32' W 028°37'0 0.0
2018-May-18 14:30N 38°32' W 028°37'0 0.0
2018-May-18 14:00N 38°32' W 028°37'0 0.0
2018-May-18 13:30N 38°32' W 028°37'0 0.0
2018-May-18 13:01N 38°32' W 028°37'0 0.0
2018-May-18 12:30N 38°32' W 028°37'1 1.1
2018-May-18 12:00N 38°32' W 028°37'4 7.5
2018-May-18 11:31N 38°32' W 028°32'3 5.2
2018-May-18 11:00N 38°32' W 028°35'2 0.1
2018-May-17 12:09N 38°32' W 028°37'0 1.7
2018-May-17 12:00N 38°32' W 028°37'4 8.3
2018-May-17 11:30N 38°32' W 028°32'2 4.6
2018-May-17 11:00N 38°32' W 028°35'2 3.9
2018-May-17 10:30N 38°32' W 028°37'0 0.0
2018-May-16 12:06N 38°32' W 028°37'0 0.3
2018-May-16 12:01N 38°32' W 028°37'4 8.5
2018-May-16 11:30N 38°32' W 028°32'2 3.7
2018-May-16 11:00N 38°32' W 028°34'2 4.9
2018-May-16 10:30N 38°32' W 028°37'0 0.0
2018-May-15 02:32N 38°32' W 028°37'0 0.2
2018-May-15 02:30N 38°32' W 028°37'4 8.5
2018-May-15 02:01N 38°32' W 028°32'4 7.5
2018-May-15 01:30N 38°32' W 028°37'1 0.0
2018-May-14 12:05N 38°32' W 028°37'0 0.5
2018-May-14 12:00N 38°32' W 028°37'4 8.6
2018-May-14 11:30N 38°32' W 028°32'2 3.1
2018-May-14 11:00N 38°32' W 028°34'3 5.4
2018-May-14 10:30N 38°32' W 028°37'  

Dump ship's entire track history